Time;durP1;ratioP1;P1;durP2;ratioP2;P2;SDS_P1;SDS_P2;PMS_P1;PMS_P2;Temp;Humidity;BMP_temperature;BMP_pressure;BME280_temperature;BME280_humidity;BME280_pressure;Samples;Min_cycle;Max_cycle;Signal;HPM_P1;HPM_P2
2022/02/26 00:00:37;;;;;;;2.47;0.20;;;;;;;18.67;41.55;101243.75;5026856;28;20018;-39
2022/02/26 00:03:03;;;;;;;1.80;0.30;;;;;;;18.66;41.55;101257.94;5024844;28;20099;-40
2022/02/26 00:05:29;;;;;;;2.20;0.35;;;;;;;18.66;41.55;101257.94;5021861;28;20444;-39
2022/02/26 00:07:54;;;;;;;1.08;0.28;;;;;;;18.67;41.64;101256.13;5015722;28;20034;-39
2022/02/26 00:10:20;;;;;;;2.13;0.40;;;;;;;18.66;41.47;101270.31;5025681;28;20033;-40
2022/02/26 00:12:45;;;;;;;1.13;0.20;;;;;;;18.66;41.31;101262.41;5017020;28;20042;-39
2022/02/26 00:15:11;;;;;;;1.25;0.30;;;;;;;18.64;41.19;101275.78;5021989;28;20037;-39
2022/02/26 00:17:36;;;;;;;0.88;0.20;;;;;;;18.64;41.09;101270.50;5023409;28;20420;-41
2022/02/26 00:20:06;;;;;;;0.65;0.22;;;;;;;18.62;40.74;101272.50;5017219;28;20033;-40
2022/02/26 00:22:31;;;;;;;1.77;0.40;;;;;;;18.63;40.74;101271.50;5008887;28;20534;-40
2022/02/26 00:24:57;;;;;;;0.90;0.35;;;;;;;18.63;40.72;101286.50;5012859;28;20030;-40
2022/02/26 00:27:23;;;;;;;0.80;0.20;;;;;;;18.62;40.77;101292.78;5015929;28;20351;-40
2022/02/26 00:29:48;;;;;;;1.48;0.30;;;;;;;18.60;40.72;101287.69;5028538;28;20033;-39
2022/02/26 00:32:14;;;;;;;1.30;0.30;;;;;;;18.60;40.47;101289.47;5024220;28;20480;-40
2022/02/26 00:34:39;;;;;;;1.15;0.40;;;;;;;18.58;40.68;101302.84;5015663;28;20033;-40
2022/02/26 00:37:05;;;;;;;1.00;0.20;;;;;;;18.58;40.67;101305.47;5029099;28;20021;-39
2022/02/26 00:39:31;;;;;;;1.48;0.30;;;;;;;18.57;40.77;101288.00;5025838;28;20105;-39
2022/02/26 00:41:56;;;;;;;2.10;0.20;;;;;;;18.56;40.88;101297.72;5010904;28;20182;-39
2022/02/26 00:44:22;;;;;;;0.80;0.20;;;;;;;18.56;40.81;101295.09;5019578;28;20546;-39
2022/02/26 00:46:48;;;;;;;1.35;0.20;;;;;;;18.55;40.84;101297.91;5029957;28;20025;-39
2022/02/26 00:51:57;;;;;;;0.95;0.15;;;;;;;18.53;40.92;101299.91;5025550;28;20084;-40
2022/02/26 00:54:23;;;;;;;0.60;0.20;;;;;;;18.52;40.90;101299.09;5025153;28;20061;-39
2022/02/26 00:56:49;;;;;;;0.73;0.10;;;;;;;18.51;40.97;101294.78;5030240;28;20060;-40
2022/02/26 00:59:14;;;;;;;1.10;0.13;;;;;;;18.51;40.87;101302.72;5024003;28;20017;-39
2022/02/26 01:01:40;;;;;;;0.90;0.20;;;;;;;18.51;40.74;101304.53;5028172;28;20025;-43
2022/02/26 01:04:07;;;;;;;0.60;0.10;;;;;;;18.50;40.71;101305.53;5019783;28;20033;-40
2022/02/26 01:06:33;;;;;;;0.50;0.20;;;;;;;18.49;40.73;101301.25;5026172;28;20048;-39
2022/02/26 01:08:59;;;;;;;0.55;0.15;;;;;;;18.48;40.86;101313.63;5017128;28;20037;-39
2022/02/26 01:11:25;;;;;;;1.65;0.20;;;;;;;18.48;40.88;101313.63;5021109;28;20098;-40
2022/02/26 01:13:50;;;;;;;0.85;0.25;;;;;;;18.48;40.91;101318.06;5016949;28;20133;-41
2022/02/26 01:16:16;;;;;;;0.95;0.10;;;;;;;18.48;41.06;101318.91;5026616;28;20078;-40
2022/02/26 01:18:41;;;;;;;0.82;0.20;;;;;;;18.49;41.02;101315.25;5027900;28;20032;-41
2022/02/26 01:21:07;;;;;;;1.75;0.20;;;;;;;18.50;41.10;101331.91;5024120;28;20029;-39
2022/02/26 01:23:32;;;;;;;0.98;0.20;;;;;;;18.50;41.10;101316.09;5025736;28;20044;-40
2022/02/26 01:25:58;;;;;;;0.45;0.10;;;;;;;18.50;40.96;101318.72;5027999;28;20693;-40
2022/02/26 01:28:23;;;;;;;2.28;0.30;;;;;;;18.51;41.05;101341.47;5021756;28;20033;-39
2022/02/26 01:30:49;;;;;;;1.15;0.20;;;;;;;18.51;41.09;101329.09;5028126;28;20036;-39
2022/02/26 01:33:15;;;;;;;0.70;0.15;;;;;;;18.52;41.12;101319.38;5026239;28;20498;-40
2022/02/26 01:35:40;;;;;;;0.47;0.10;;;;;;;18.50;41.39;101343.28;5022833;28;20068;-39
2022/02/26 01:38:06;;;;;;;1.17;0.20;;;;;;;18.51;41.32;101328.28;5028924;28;20128;-39
2022/02/26 01:40:32;;;;;;;0.80;0.20;;;;;;;18.50;41.39;101338.00;5020335;28;20033;-39
2022/02/26 01:42:58;;;;;;;0.80;0.20;;;;;;;18.49;41.33;101338.19;5025804;28;20033;-39
2022/02/26 01:45:26;;;;;;;0.52;0.20;;;;;;;18.49;41.26;101338.19;5027874;28;20032;-41
2022/02/26 01:47:52;;;;;;;0.60;0.10;;;;;;;18.47;41.10;101335.72;5019395;28;20097;-39
2022/02/26 01:50:18;;;;;;;0.77;0.20;;;;;;;18.47;40.96;101348.91;5025663;28;20038;-40
2022/02/26 01:52:43;;;;;;;0.30;0.10;;;;;;;18.45;41.08;101335.06;5013277;28;20087;-39
2022/02/26 01:55:10;;;;;;;0.90;0.20;;;;;;;18.45;41.22;101347.44;5027594;28;20029;-40
2022/02/26 01:57:36;;;;;;;0.93;0.10;;;;;;;18.44;41.21;101353.72;5026528;28;20049;-40
2022/02/26 02:00:05;;;;;;;0.55;0.10;;;;;;;18.43;41.02;101346.84;5022884;28;20068;-39
2022/02/26 02:02:30;;;;;;;0.52;0.10;;;;;;;18.42;41.09;101343.38;5026029;28;20083;-42
2022/02/26 02:04:56;;;;;;;0.82;0.20;;;;;;;18.42;40.99;101350.47;5026141;28;20545;-39
2022/02/26 02:07:21;;;;;;;0.38;0.10;;;;;;;18.41;40.80;101349.66;5027069;28;20033;-40
2022/02/26 02:09:47;;;;;;;0.60;0.10;;;;;;;18.39;40.93;101340.25;5025225;28;20136;-39
2022/02/26 02:12:12;;;;;;;0.70;0.10;;;;;;;18.39;40.63;101340.25;5295938;22;20057;-40
2022/02/26 02:14:38;;;;;;;1.00;0.10;;;;;;;18.38;40.92;101341.25;5027899;28;20075;-40
2022/02/26 02:17:04;;;;;;;0.30;0.10;;;;;;;18.37;41.04;101345.72;5028176;28;20227;-39
2022/02/26 02:19:29;;;;;;;0.30;0.10;;;;;;;18.37;41.20;101343.06;5027810;28;20043;-43
2022/02/26 02:21:55;;;;;;;0.40;0.10;;;;;;;18.35;41.04;101342.41;5027862;28;20021;-40
2022/02/26 02:24:20;;;;;;;1.08;0.22;;;;;;;18.34;40.92;101338.13;5027747;28;20029;-39
2022/02/26 02:26:48;;;;;;;0.70;0.10;;;;;;;18.35;40.78;101336.31;5028071;28;20037;-39
2022/02/26 02:29:14;;;;;;;0.30;0.10;;;;;;;18.34;40.65;101338.13;5028101;28;20059;-39
2022/02/26 02:31:39;;;;;;;0.60;0.20;;;;;;;18.34;40.64;101343.41;5027944;28;20031;-40
2022/02/26 02:34:05;;;;;;;0.57;0.10;;;;;;;18.35;40.66;101344.25;5027840;28;20111;-39
2022/02/26 02:36:30;;;;;;;0.40;0.10;;;;;;;18.34;40.57;101338.13;5027646;28;20591;-39
2022/02/26 02:38:56;;;;;;;0.65;0.10;;;;;;;18.34;40.54;101342.59;5027961;28;20068;-39
2022/02/26 02:41:23;;;;;;;0.52;0.10;;;;;;;18.33;40.53;101347.06;5027461;28;20083;-40
2022/02/26 02:43:49;;;;;;;0.40;0.10;;;;;;;18.33;40.58;101346.22;5025961;28;20093;-39
2022/02/26 02:46:15;;;;;;;1.13;0.20;;;;;;;18.32;40.73;101340.13;5027581;28;20143;-39
2022/02/26 02:48:41;;;;;;;0.38;0.10;;;;;;;18.33;40.69;101335.69;5026708;28;20096;-39
2022/02/26 02:51:06;;;;;;;0.50;0.10;;;;;;;18.32;40.79;101340.13;5027418;28;20112;-40
2022/02/26 02:53:33;;;;;;;1.45;0.17;;;;;;;18.32;40.61;101341.94;5025830;28;20135;-38
2022/02/26 02:55:59;;;;;;;0.73;0.10;;;;;;;18.31;40.42;101337.66;5027502;28;20025;-39
2022/02/26 02:58:27;;;;;;;0.45;0.10;;;;;;;18.30;40.37;101336.84;5027116;28;20045;-39
2022/02/26 03:00:54;;;;;;;0.20;0.10;;;;;;;18.30;40.39;101343.94;5027387;28;20052;-39
2022/02/26 03:03:20;;;;;;;0.68;0.10;;;;;;;18.28;40.17;101335.38;5027328;28;20033;-39
2022/02/26 03:05:46;;;;;;;0.45;0.10;;;;;;;18.27;40.32;101324.00;5027319;28;20017;-39
2022/02/26 03:08:12;;;;;;;0.30;0.10;;;;;;;18.27;40.23;101336.38;5027425;28;20084;-39
2022/02/26 03:10:37;;;;;;;0.43;0.10;;;;;;;18.26;40.35;101340.00;5026946;28;20036;-39
2022/02/26 03:13:03;;;;;;;1.02;0.10;;;;;;;18.26;40.48;101332.09;5026969;28;20053;-39
2022/02/26 03:15:29;;;;;;;0.73;0.10;;;;;;;18.24;40.38;101335.72;5027171;28;20029;-39
2022/02/26 03:17:55;;;;;;;0.90;0.20;;;;;;;18.24;40.59;101332.25;5027066;28;20055;-39
2022/02/26 03:20:21;;;;;;;0.43;0.10;;;;;;;18.23;40.32;101339.34;5027039;28;20539;-39
2022/02/26 03:22:47;;;;;;;0.60;0.10;;;;;;;18.22;40.49;101335.06;5026835;28;20106;-39
2022/02/26 03:25:13;;;;;;;1.10;0.10;;;;;;;18.22;40.62;101335.06;5027089;28;20039;-39
2022/02/26 03:27:39;;;;;;;1.67;0.10;;;;;;;18.22;40.59;101344.78;5027144;28;20033;-39
2022/02/26 03:30:06;;;;;;;1.17;0.10;;;;;;;18.22;40.60;101342.16;5025162;28;20456;-39
2022/02/26 03:32:32;;;;;;;0.30;0.05;;;;;;;18.22;40.73;101347.44;5027013;28;20041;-39
2022/02/26 03:34:57;;;;;;;0.32;0.10;;;;;;;18.22;40.82;101344.78;5026993;28;20610;-39
2022/02/26 03:37:24;;;;;;;1.45;0.00;;;;;;;18.21;40.96;101346.63;5026756;28;20625;-39
2022/02/26 03:39:50;;;;;;;0.93;0.08;;;;;;;18.22;41.10;101357.97;5025420;28;20033;-39
2022/02/26 03:42:15;;;;;;;0.52;0.10;;;;;;;18.21;41.03;101349.25;5026848;28;20362;-39
2022/02/26 03:44:42;;;;;;;0.45;0.10;;;;;;;18.22;41.25;101334.25;5026667;28;20468;-39
2022/02/26 03:47:08;;;;;;;1.02;0.10;;;;;;;18.24;41.19;101356.00;5027029;28;20514;-39
2022/02/26 03:49:33;;;;;;;0.40;0.10;;;;;;;18.23;41.22;101347.25;5026585;28;20022;-39
2022/02/26 03:52:00;;;;;;;0.47;0.10;;;;;;;18.22;41.34;101340.34;5026234;28;20400;-39
2022/02/26 03:54:26;;;;;;;0.20;0.00;;;;;;;18.22;41.46;101345.63;5026414;28;20036;-39
2022/02/26 03:56:51;;;;;;;7.18;0.10;;;;;;;18.24;41.69;101348.91;5025081;28;20507;-38
2022/02/26 03:59:17;;;;;;;1.10;0.05;;;;;;;18.24;41.61;101351.53;5027592;28;20033;-40
2022/02/26 04:01:43;;;;;;;1.92;0.10;;;;;;;18.24;41.68;101345.44;5030786;28;20029;-39
2022/02/26 04:04:09;;;;;;;1.67;0.63;;;;;;;18.23;41.81;101349.91;5030624;28;20067;-39
2022/02/26 04:06:35;;;;;;;1.77;0.10;;;;;;;18.24;41.90;101337.53;5030357;28;20071;-40
2022/02/26 04:09:02;;;;;;;0.65;0.00;;;;;;;18.22;41.92;101345.63;5030624;28;20029;-39
2022/02/26 04:11:27;;;;;;;2.97;0.10;;;;;;;18.22;41.93;101344.78;5030034;28;20079;-39
2022/02/26 04:13:53;;;;;;;0.57;0.10;;;;;;;18.21;42.06;101337.88;5030102;28;20045;-38
2022/02/26 04:16:18;;;;;;;0.88;0.10;;;;;;;18.20;42.06;101339.69;5030235;28;20095;-39
2022/02/26 04:18:44;;;;;;;0.55;0.10;;;;;;;18.19;42.12;101345.13;5030188;28;20033;-38
2022/02/26 04:21:09;;;;;;;0.45;0.10;;;;;;;18.19;42.14;101348.59;5029951;28;20025;-39
2022/02/26 04:23:35;;;;;;;0.82;0.10;;;;;;;18.18;42.12;101335.59;5030093;28;20037;-40
2022/02/26 04:26:00;;;;;;;1.38;0.10;;;;;;;18.16;42.24;101338.41;5030352;28;20017;-40
2022/02/26 04:28:26;;;;;;;0.43;0.10;;;;;;;18.17;42.12;101347.13;5030369;28;20031;-40
2022/02/26 04:30:51;;;;;;;1.15;0.25;;;;;;;18.16;42.24;101351.59;5030267;28;20033;-39
2022/02/26 04:33:17;;;;;;;0.50;0.10;;;;;;;18.15;42.19;101349.13;5030076;28;20452;-39
2022/02/26 04:35:43;;;;;;;0.20;0.00;;;;;;;18.16;42.18;101356.03;5030026;28;20047;-39
2022/02/26 04:38:09;;;;;;;0.50;0.08;;;;;;;18.15;42.33;101354.38;5030163;28;20571;-39
2022/02/26 04:40:34;;;;;;;0.28;0.10;;;;;;;18.14;42.28;101352.75;5029883;28;20040;-39
2022/02/26 04:43:00;;;;;;;1.77;0.10;;;;;;;18.13;42.20;101348.47;5029774;28;20591;-40
2022/02/26 04:45:26;;;;;;;0.32;0.10;;;;;;;18.12;42.17;101360.00;5029828;28;20061;-39
2022/02/26 04:47:51;;;;;;;0.30;0.05;;;;;;;18.10;42.32;101357.53;5029741;28;20374;-39
2022/02/26 04:50:18;;;;;;;0.25;0.03;;;;;;;18.09;42.26;101355.91;5029605;28;20034;-39
2022/02/26 04:52:44;;;;;;;0.32;0.10;;;;;;;18.09;42.21;101349.81;5030124;28;20116;-39
2022/02/26 04:55:11;;;;;;;0.50;0.10;;;;;;;18.09;42.35;101350.63;5029692;28;20025;-39
2022/02/26 04:57:37;;;;;;;0.50;0.10;;;;;;;18.09;42.30;101355.91;5029898;28;20030;-39
2022/02/26 05:00:08;;;;;;;0.38;0.00;;;;;;;18.09;42.29;101360.34;5029751;28;20362;-39
2022/02/26 05:02:33;;;;;;;0.52;0.10;;;;;;;18.10;42.23;101352.25;5029312;28;20029;-39
2022/02/26 05:04:59;;;;;;;0.50;0.10;;;;;;;18.10;42.23;101362.81;5029675;28;20079;-39
2022/02/26 05:07:25;;;;;;;0.82;0.00;;;;;;;18.11;42.24;101361.00;5029544;28;20392;-39
2022/02/26 05:09:51;;;;;;;0.13;0.10;;;;;;;18.10;42.23;101367.25;5029374;28;20096;-39
2022/02/26 05:12:16;;;;;;;0.45;0.10;;;;;;;18.10;42.29;101354.09;5028554;28;20119;-39
2022/02/26 05:14:42;;;;;;;0.60;0.10;;;;;;;18.09;42.19;101355.06;5029599;28;20080;-40
2022/02/26 05:17:07;;;;;;;1.42;0.10;;;;;;;18.09;42.05;101363.81;5029567;28;20025;-39
2022/02/26 05:19:33;;;;;;;0.47;0.10;;;;;;;18.09;41.98;101355.06;5029106;28;20029;-40
2022/02/26 05:21:58;;;;;;;0.52;0.10;;;;;;;18.09;41.86;101370.91;5029391;28;20029;-39
2022/02/26 05:24:24;;;;;;;0.98;0.10;;;;;;;18.08;42.13;101362.16;5027409;28;20516;-39
2022/02/26 05:26:49;;;;;;;0.30;0.10;;;;;;;18.07;42.06;101368.44;5029316;28;20492;-39
2022/02/26 05:29:15;;;;;;;0.40;0.10;;;;;;;18.05;42.04;101375.69;5028924;28;20029;-40
2022/02/26 05:31:40;;;;;;;0.43;0.10;;;;;;;18.07;42.01;101370.25;5029073;28;20079;-39
2022/02/26 05:34:06;;;;;;;0.30;0.10;;;;;;;18.05;42.12;101375.69;5028770;28;20068;-39
2022/02/26 05:36:31;;;;;;;0.40;0.10;;;;;;;18.05;42.19;101375.69;5028809;28;20030;-39
2022/02/26 05:38:57;;;;;;;0.40;0.10;;;;;;;18.06;42.17;101371.22;5028767;28;20429;-39
2022/02/26 05:41:23;;;;;;;0.40;0.10;;;;;;;18.05;42.11;101375.69;5028952;28;20034;-39
2022/02/26 05:43:48;;;;;;;0.22;0.00;;;;;;;18.05;42.13;101383.59;5028581;28;20032;-40
2022/02/26 05:46:14;;;;;;;0.63;0.13;;;;;;;18.06;42.16;101381.78;5028795;28;20061;-44
2022/02/26 05:48:39;;;;;;;0.77;0.10;;;;;;;18.05;42.13;101375.69;5028800;28;20091;-39
2022/02/26 05:51:05;;;;;;;0.95;0.10;;;;;;;18.05;42.33;101390.69;5028824;28;20172;-39
2022/02/26 05:53:31;;;;;;;0.40;0.00;;;;;;;18.05;42.21;101377.50;5028684;28;20025;-39
2022/02/26 05:55:57;;;;;;;0.65;0.10;;;;;;;18.04;42.14;101384.59;5028604;28;20475;-39
2022/02/26 05:58:23;;;;;;;1.42;0.10;;;;;;;18.03;42.17;101388.22;5028499;28;20109;-39
2022/02/26 06:00:49;;;;;;;0.60;0.10;;;;;;;18.05;42.20;101395.97;5028249;28;20435;-45
2022/02/26 06:03:18;;;;;;;0.50;0.10;;;;;;;18.04;42.18;101397.78;5033125;28;20369;-39
2022/02/26 06:05:44;;;;;;;0.47;0.17;;;;;;;18.04;42.27;101410.13;5042804;28;20564;-39
2022/02/26 06:08:10;;;;;;;0.68;0.10;;;;;;;18.03;42.18;101405.84;5048142;28;20052;-39
2022/02/26 06:10:35;;;;;;;0.65;0.15;;;;;;;18.02;42.21;101398.94;5046741;28;20110;-39
2022/02/26 06:13:01;;;;;;;0.63;0.10;;;;;;;18.02;42.17;101410.31;5045774;28;20045;-39
2022/02/26 06:15:27;;;;;;;0.70;0.10;;;;;;;18.01;42.20;101399.94;5046664;28;20476;-41
2022/02/26 06:17:52;;;;;;;0.30;0.20;;;;;;;18.02;42.17;101406.84;5045405;28;20355;-39
2022/02/26 06:20:18;;;;;;;0.50;0.20;;;;;;;18.01;41.99;101406.03;5044655;28;20283;-39
2022/02/26 06:22:44;;;;;;;0.47;0.15;;;;;;;18.00;42.12;101407.00;5046872;28;20551;-40
2022/02/26 06:25:09;;;;;;;0.73;0.10;;;;;;;18.01;42.20;101408.66;5047587;28;20031;-39
2022/02/26 06:27:40;;;;;;;0.65;0.22;;;;;;;18.01;42.15;101411.28;5046960;28;20040;-40
2022/02/26 06:30:07;;;;;;;1.85;0.10;;;;;;;18.02;41.98;101428.75;5046668;28;20423;-40
2022/02/26 06:32:34;;;;;;;0.20;0.10;;;;;;;18.04;42.17;101421.50;5044538;28;20090;-40
2022/02/26 06:34:59;;;;;;;0.40;0.10;;;;;;;18.07;42.08;101431.72;5044320;28;20718;-40
2022/02/26 06:37:25;;;;;;;3.00;0.15;;;;;;;18.09;42.06;101421.81;5042047;28;20357;-39
2022/02/26 06:39:50;;;;;;;0.40;0.10;;;;;;;18.11;42.16;101433.03;5047296;28;20021;-39
2022/02/26 06:42:16;;;;;;;0.63;0.10;;;;;;;18.14;42.07;101437.13;5045463;28;20029;-39
2022/02/26 06:44:41;;;;;;;1.23;0.15;;;;;;;18.15;42.10;101429.06;5046121;28;20029;-40
2022/02/26 06:47:07;;;;;;;0.65;0.20;;;;;;;18.17;42.10;101424.44;5047322;28;20033;-40
2022/02/26 06:49:33;;;;;;;0.43;0.10;;;;;;;18.20;42.07;101429.38;5047088;28;20025;-39
2022/02/26 06:51:59;;;;;;;2.05;0.10;;;;;;;18.25;41.99;101428.84;5045568;28;20639;-41
2022/02/26 06:54:24;;;;;;;0.98;0.20;;;;;;;18.29;42.01;101439.91;5032107;28;20068;-39
2022/02/26 06:56:51;;;;;;;0.47;0.10;;;;;;;18.34;41.87;101437.56;5045100;28;20029;-39
2022/02/26 06:59:16;;;;;;;1.08;0.10;;;;;;;18.38;41.75;101444.97;5044374;28;20120;-40
2022/02/26 07:01:45;;;;;;;0.47;0.15;;;;;;;18.45;41.83;101437.16;5039893;28;20027;-40
2022/02/26 07:04:11;;;;;;;0.50;0.10;;;;;;;18.48;41.79;101445.56;5043723;28;20511;-39
2022/02/26 07:06:42;;;;;;;1.20;0.20;;;;;;;18.52;41.52;101438.13;5043043;28;20037;-40
2022/02/26 07:09:09;;;;;;;1.35;0.13;;;;;;;18.57;41.85;101441.06;5037254;28;20117;-40
2022/02/26 07:11:35;;;;;;;1.33;0.15;;;;;;;18.61;41.85;101447.66;5044485;28;20099;-40
2022/02/26 07:14:00;;;;;;;0.32;0.10;;;;;;;18.67;41.71;101446.16;5037335;28;20029;-40
2022/02/26 07:16:26;;;;;;;0.50;0.20;;;;;;;18.71;41.71;101436.91;5066997;28;20032;-39
2022/02/26 07:18:51;;;;;;;2.60;0.10;;;;;;;18.76;41.67;101445.94;5042099;28;20028;-40
2022/02/26 07:21:16;;;;;;;0.85;0.20;;;;;;;18.82;41.68;101447.06;5050885;28;20033;-39
2022/02/26 07:23:42;;;;;;;1.40;0.20;;;;;;;18.86;41.61;101449.19;5046302;28;20393;-39
2022/02/26 07:26:07;;;;;;;0.47;0.10;;;;;;;18.95;41.48;101454.38;5045207;28;20032;-39
2022/02/26 07:28:33;;;;;;;0.82;0.20;;;;;;;19.02;41.46;101450.06;5046393;28;20032;-39
2022/02/26 07:30:58;;;;;;;1.00;0.20;;;;;;;19.08;41.45;101447.53;5029070;28;20029;-39
2022/02/26 07:33:24;;;;;;;0.30;0.10;;;;;;;19.16;41.41;101451.94;5030755;28;20055;-39
2022/02/26 07:35:49;;;;;;;0.50;0.10;;;;;;;19.20;41.35;101455.88;5043986;28;20443;-39
2022/02/26 07:38:15;;;;;;;0.40;0.10;;;;;;;19.23;41.43;101448.41;5026721;28;20536;-39
2022/02/26 07:40:42;;;;;;;0.63;0.10;;;;;;;19.29;41.41;101446.88;5038931;28;20033;-40
2022/02/26 07:43:09;;;;;;;1.55;0.20;;;;;;;19.36;41.27;101439.06;5055570;28;20024;-39
2022/02/26 07:45:37;;;;;;;0.93;0.20;;;;;;;19.43;41.24;101454.00;5065538;28;20400;-39
2022/02/26 07:48:03;;;;;;;0.50;0.15;;;;;;;19.47;41.30;101447.38;5053477;28;20029;-40
2022/02/26 07:50:29;;;;;;;0.73;0.20;;;;;;;19.52;41.03;101450.34;5048464;28;20128;-39
2022/02/26 07:52:54;;;;;;;0.50;0.20;;;;;;;19.55;41.22;101455.28;5052661;28;20418;-40
2022/02/26 07:55:20;;;;;;;1.17;0.15;;;;;;;19.59;41.19;101449.63;5055756;28;20033;-40
2022/02/26 07:57:45;;;;;;;0.30;0.10;;;;;;;19.63;41.24;101441.16;5051603;28;20029;-40
2022/02/26 08:00:12;;;;;;;2.78;0.10;;;;;;;19.68;41.14;101453.84;5065118;22;20060;-39
2022/02/26 08:02:37;;;;;;;0.75;0.20;;;;;;;19.74;41.54;101455.75;5058087;28;20040;-39
2022/02/26 08:05:03;;;;;;;1.10;0.20;;;;;;;19.79;41.72;101450.75;5052618;28;20527;-39
2022/02/26 08:07:29;;;;;;;5.65;0.38;;;;;;;19.85;42.24;101440.25;5054594;28;20518;-40
2022/02/26 08:09:54;;;;;;;7.28;0.30;;;;;;;19.94;42.41;101448.91;5063854;28;20039;-41
2022/02/26 08:12:20;;;;;;;3.03;0.20;;;;;;;20.04;42.37;101449.47;5064708;28;20024;-41
2022/02/26 08:14:45;;;;;;;0.88;0.17;;;;;;;20.10;42.93;101448.75;5055741;28;20024;-42
2022/02/26 08:17:11;;;;;;;4.13;0.20;;;;;;;20.12;42.85;101454.69;5058198;28;20028;-41
2022/02/26 08:19:38;;;;;;;6.00;0.20;;;;;;;20.13;42.98;101451.03;5061756;28;20060;-40
2022/02/26 08:22:04;;;;;;;1.58;0.30;;;;;;;20.16;43.01;101458.59;5058209;28;20025;-39
2022/02/26 08:24:30;;;;;;;8.75;0.20;;;;;;;20.21;43.08;101439.53;5058085;28;20032;-38
2022/02/26 08:26:56;;;;;;;2.85;0.30;;;;;;;20.24;43.03;101449.75;5062512;28;20500;-41
2022/02/26 08:29:21;;;;;;;1.85;0.20;;;;;;;20.26;43.23;101441.63;5054533;28;20033;-39
2022/02/26 08:31:47;;;;;;;5.68;0.20;;;;;;;20.29;43.10;101441.25;5058361;28;20043;-39
2022/02/26 08:34:12;;;;;;;4.15;0.50;;;;;;;20.32;43.15;101446.19;5063825;28;20380;-39
2022/02/26 08:36:40;;;;;;;2.85;0.20;;;;;;;20.36;43.08;101450.09;5052638;28;20034;-41
2022/02/26 08:39:05;;;;;;;3.53;0.17;;;;;;;20.40;43.24;101435.50;5058206;28;20116;-39
2022/02/26 08:41:31;;;;;;;5.95;0.40;;;;;;;20.46;43.28;101448.00;5058706;28;20457;-39
2022/02/26 08:43:56;;;;;;;0.95;0.20;;;;;;;20.49;43.54;101442.34;5067545;28;20040;-38
2022/02/26 08:46:23;;;;;;;2.22;0.25;;;;;;;20.50;43.11;101444.81;5063551;28;20139;-38
2022/02/26 08:48:49;;;;;;;6.22;0.30;;;;;;;20.51;43.04;101442.97;5058514;28;20032;-39
2022/02/26 08:51:14;;;;;;;3.53;0.20;;;;;;;20.50;43.44;101447.44;5056851;28;20029;-39
2022/02/26 08:53:40;;;;;;;2.75;0.30;;;;;;;20.50;43.70;101457.22;5063988;28;20047;-37
2022/02/26 08:56:05;;;;;;;3.50;0.20;;;;;;;20.49;43.59;101437.88;5060346;28;20148;-41
2022/02/26 08:58:31;;;;;;;0.90;0.20;;;;;;;20.48;43.31;101446.00;5063837;28;20464;-39
2022/02/26 09:00:56;;;;;;;4.38;0.30;;;;;;;20.46;42.87;101443.53;5066807;28;20060;-41
2022/02/26 09:03:22;;;;;;;4.88;0.30;;;;;;;20.45;40.71;101447.19;5071077;28;20036;-40
2022/02/26 09:05:48;;;;;;;6.15;0.20;;;;;;;20.45;38.87;101441.06;5066658;28;20052;-40
2022/02/26 09:08:14;;;;;;;6.93;0.60;;;;;;;20.43;38.25;101438.59;5064794;28;20032;-41
2022/02/26 09:10:40;;;;;;;3.55;0.40;;;;;;;20.42;38.26;101446.72;5077243;28;20020;-42
2022/02/26 09:13:06;;;;;;;5.35;0.20;;;;;;;20.42;38.13;101441.44;5054867;28;20033;-39
2022/02/26 09:15:31;;;;;;;1.35;0.30;;;;;;;20.42;38.28;101433.50;5056520;28;20129;-45
2022/02/26 09:17:57;;;;;;;3.17;0.28;;;;;;;20.43;37.78;101437.78;5068684;28;20534;-42
2022/02/26 09:20:23;;;;;;;3.10;0.40;;;;;;;20.43;37.68;101437.78;5063778;28;20043;-42
2022/02/26 09:22:49;;;;;;;3.65;0.20;;;;;;;20.42;38.00;101431.66;5063709;28;20028;-44
2022/02/26 09:25:14;;;;;;;5.93;0.20;;;;;;;20.43;37.79;101437.78;5066501;28;20039;-40
2022/02/26 09:27:40;;;;;;;12.35;0.88;;;;;;;20.41;37.70;101439.78;5065981;28;20024;-44
2022/02/26 09:30:07;;;;;;;11.15;0.50;;;;;;;20.38;37.55;101438.34;5067619;28;20059;-40
2022/02/26 09:32:33;;;;;;;7.72;0.40;;;;;;;20.37;37.85;101441.13;5052400;28;20089;-42
2022/02/26 09:34:59;;;;;;;14.18;0.50;;;;;;;20.37;38.43;101441.13;5057148;28;20146;-41
2022/02/26 09:37:25;;;;;;;6.82;0.28;;;;;;;20.33;37.65;101437.22;5063046;28;20102;-39
2022/02/26 09:39:51;;;;;;;5.70;0.40;;;;;;;20.29;37.09;101426.22;5065985;28;20032;-39
2022/02/26 09:42:22;;;;;;;6.32;0.60;;;;;;;20.28;36.82;101432.50;5066037;28;20044;-41
2022/02/26 09:44:49;;;;;;;0.93;0.25;;;;;;;20.27;36.65;101440.63;5067623;28;20495;-41
2022/02/26 09:47:14;;;;;;;6.38;0.30;;;;;;;20.24;36.19;101427.75;5075158;28;20488;-38
2022/02/26 09:49:40;;;;;;;5.32;0.20;;;;;;;20.21;35.75;101424.47;5065392;28;20051;-39
2022/02/26 09:52:08;;;;;;;4.80;0.20;;;;;;;20.19;35.47;101423.84;5066600;28;20028;-44
2022/02/26 09:54:33;;;;;;;1.67;0.20;;;;;;;20.17;35.44;101414.44;5037319;28;20043;-42
2022/02/26 09:59:34;;;;;;;3.22;0.10;;;;;;;20.15;34.82;101425.22;4999070;22;20061;-74
2022/02/26 10:02:06;;;;;;;1.42;0.20;;;;;;;20.15;34.35;101419.09;5006776;28;20052;-71
2022/02/26 10:04:36;;;;;;;3.17;0.30;;;;;;;20.15;34.21;101425.22;5006997;28;20087;-71
2022/02/26 10:07:13;;;;;;;1.48;0.10;;;;;;;20.15;33.59;101430.50;5006338;28;20492;-70
2022/02/26 10:09:45;;;;;;;2.05;0.43;;;;;;;20.17;33.40;101423.22;5007979;28;20121;-71
2022/02/26 10:12:23;;;;;;;2.08;0.30;;;;;;;20.18;33.24;101429.31;5006550;28;20715;-72
2022/02/26 10:14:54;;;;;;;2.47;0.10;;;;;;;20.18;33.27;101421.38;5007038;28;20117;-70
2022/02/26 10:17:33;;;;;;;1.50;0.10;;;;;;;20.15;32.70;101425.22;5006898;28;20072;-71
2022/02/26 10:20:13;;;;;;;1.45;0.13;;;;;;;20.14;32.64;101426.22;5001189;28;20129;-73
2022/02/26 10:22:51;;;;;;;1.20;0.10;;;;;;;20.12;32.20;101416.81;5005265;28;20030;-72
2022/02/26 10:25:21;;;;;;;2.00;0.20;;;;;;;20.10;32.23;101421.47;5006292;28;20034;-72
2022/02/26 10:27:48;;;;;;;2.55;0.10;;;;;;;20.07;32.21;101424.47;5007829;28;20068;-71
2022/02/26 10:30:24;;;;;;;2.17;0.10;;;;;;;20.01;32.17;101420.75;5004124;28;20080;-72
2022/02/26 10:33:09;;;;;;;1.40;0.10;;;;;;;19.97;32.21;101414.19;5006392;28;20041;-71
2022/02/26 10:35:54;;;;;;;4.78;0.10;;;;;;;19.96;32.63;101422.28;5001655;28;20496;-72
2022/02/26 10:38:33;;;;;;;1.85;0.10;;;;;;;19.93;32.49;101426.13;5001739;28;20412;-72
2022/02/26 10:41:06;;;;;;;2.17;0.10;;;;;;;19.91;32.63;101422.00;5006704;28;20493;-72
2022/02/26 10:43:55;;;;;;;2.17;0.10;;;;;;;19.87;32.41;101421.56;5006117;28;20122;-74
2022/02/26 10:46:23;;;;;;;2.22;0.10;;;;;;;19.85;32.72;101418.28;5005099;28;20326;-71
2022/02/26 10:49:12;;;;;;;1.83;0.10;;;;;;;19.79;32.61;101419.03;5005024;28;20034;-71
2022/02/26 10:51:40;;;;;;;1.25;0.10;;;;;;;19.76;33.04;101419.38;5005770;28;20034;-70
2022/02/26 10:54:09;;;;;;;1.17;0.10;;;;;;;19.73;33.06;101417.94;5006812;28;20038;-71
2022/02/26 10:56:42;;;;;;;4.20;0.55;;;;;;;19.74;33.29;101416.09;5007433;28;20030;-71
2022/02/26 10:59:09;;;;;;;1.95;0.10;;;;;;;19.73;33.68;101417.09;5005091;28;20081;-72
2022/02/26 11:01:36;;;;;;;1.25;0.10;;;;;;;19.70;34.01;101410.34;5005295;28;20034;-72
2022/02/26 11:04:02;;;;;;;3.50;0.20;;;;;;;19.67;34.16;101407.25;5006575;28;20052;-71
2022/02/26 11:06:30;;;;;;;1.20;0.10;;;;;;;19.66;34.28;101422.28;5006283;28;20324;-71
2022/02/26 11:08:55;;;;;;;2.35;0.15;;;;;;;19.66;34.22;101402.97;5006386;28;20040;-70
2022/02/26 11:11:25;;;;;;;2.55;0.10;;;;;;;19.66;34.38;101408.25;5006818;28;20021;-71
2022/02/26 11:13:53;;;;;;;1.23;0.10;;;;;;;19.66;34.27;101405.59;5006843;28;20254;-72
2022/02/26 11:16:20;;;;;;;2.55;0.10;;;;;;;19.64;34.45;101397.84;5007240;28;20543;-72
2022/02/26 11:18:49;;;;;;;1.75;0.10;;;;;;;19.64;34.52;101404.97;5007031;28;20026;-70
2022/02/26 11:21:19;;;;;;;3.83;0.10;;;;;;;19.62;34.71;101393.75;5007710;28;20030;-73
2022/02/26 11:23:47;;;;;;;1.65;0.10;;;;;;;19.62;34.90;101401.69;5005829;28;20045;-71
2022/02/26 11:26:14;;;;;;;0.82;0.20;;;;;;;19.61;34.85;101392.09;5006701;28;20511;-70